Time;durP1;ratioP1;P1;durP2;ratioP2;P2;SDS_P1;SDS_P2;PMS_P1;PMS_P2;Temp;Humidity;BMP_temperature;BMP_pressure;BME280_temperature;BME280_humidity;BME280_pressure;Samples;Min_cycle;Max_cycle;Signal;HPM_P1;HPM_P2
2022/01/18 00:00:18;;;;;;;6.35;1.45;;;;;;;1.93;55.64;100936.81;4419561;32;34480;-63
2022/01/18 00:02:46;;;;;;;5.47;1.83;;;;;;;1.79;56.06;100924.38;4420032;32;33823;-62
2022/01/18 00:05:15;;;;;;;4.70;1.30;;;;;;;1.87;55.00;100938.78;4422676;32;33599;-62
2022/01/18 00:07:45;;;;;;;4.90;1.30;;;;;;;1.87;55.09;100929.44;4423340;32;33225;-62
2022/01/18 00:10:14;;;;;;;3.87;1.27;;;;;;;1.74;55.33;100927.38;4420860;32;33810;-62
2022/01/18 00:15:31;;;;;;;4.37;1.37;;;;;;;1.66;55.34;100943.62;4421904;32;34730;-62
2022/01/18 00:23:21;;;;;;;6.57;1.48;;;;;;;1.52;55.99;100955.00;4421283;32;32477;-63
2022/01/18 00:25:53;;;;;;;2.78;1.12;;;;;;;1.58;55.45;100959.81;4426618;32;34651;-62
2022/01/18 00:28:22;;;;;;;3.22;0.95;;;;;;;1.53;56.80;100968.69;4429158;32;33312;-62
2022/01/18 00:36:07;;;;;;;4.05;1.02;;;;;;;1.80;54.74;100972.13;4424173;32;34707;-62
2022/01/18 00:38:46;;;;;;;3.97;1.05;;;;;;;1.63;55.41;100988.38;4415463;32;33236;-62
2022/01/18 00:41:15;;;;;;;5.65;1.35;;;;;;;1.71;55.21;100967.03;4421532;32;33886;-62
2022/01/18 00:43:43;;;;;;;3.55;1.00;;;;;;;1.73;55.12;100988.53;4417771;32;34899;-63
2022/01/18 00:46:12;;;;;;;8.80;1.65;;;;;;;1.76;54.92;100987.19;4419439;32;33940;-62
2022/01/18 00:48:40;;;;;;;2.70;1.05;;;;;;;1.56;56.05;100962.25;4419146;32;33604;-64
2022/01/18 00:51:11;;;;;;;2.90;1.00;;;;;;;1.76;55.38;100991.41;4421585;32;33899;-62
2022/01/18 00:53:41;;;;;;;3.20;1.00;;;;;;;1.73;55.60;100974.09;4425208;32;33576;-63
2022/01/18 00:58:43;;;;;;;7.22;1.30;;;;;;;1.77;55.79;100991.53;4423605;32;34136;-62
2022/01/18 01:01:11;;;;;;;7.60;1.58;;;;;;;1.75;56.54;100990.47;4419150;32;33805;-62
2022/01/18 01:03:39;;;;;;;6.40;1.10;;;;;;;1.69;56.52;100989.87;4426325;32;34027;-62
2022/01/18 01:06:07;;;;;;;3.33;1.15;;;;;;;1.82;56.63;101003.88;4429188;32;34696;-63
2022/01/18 01:08:35;;;;;;;4.50;1.37;;;;;;;1.62;56.82;101007.88;4418306;32;32095;-62
2022/01/18 01:11:05;;;;;;;3.95;0.95;;;;;;;1.55;57.46;101010.59;4417252;32;34759;-63
2022/01/18 01:13:33;;;;;;;6.97;1.83;;;;;;;1.58;57.51;101010.88;4416805;32;33941;-63
2022/01/18 01:34:59;;;;;;;11.25;2.08;;;;;;;1.42;59.06;101048.41;4428490;32;33610;-62
2022/01/18 01:45:29;;;;;;;6.78;1.27;;;;;;;1.46;59.37;101050.53;4423496;32;33886;-62
2022/01/18 01:48:00;;;;;;;5.53;1.08;;;;;;;1.47;59.43;101047.22;4421187;32;34071;-62
2022/01/18 01:50:42;;;;;;;4.37;1.40;;;;;;;1.43;59.97;101050.22;4417084;32;32797;-63
2022/01/18 01:53:11;;;;;;;6.00;1.37;;;;;;;1.67;58.98;101047.56;4423948;32;33591;-62
2022/01/18 01:55:39;;;;;;;4.05;1.15;;;;;;;1.53;59.08;101046.19;4426416;32;34532;-62
2022/01/18 01:58:06;;;;;;;2.83;0.77;;;;;;;1.46;59.29;101046.31;4421495;32;34146;-63
2022/01/18 02:00:45;;;;;;;4.05;1.10;;;;;;;1.41;59.77;101057.75;4415150;32;33591;-63
2022/01/18 02:03:14;;;;;;;5.82;1.37;;;;;;;1.30;59.71;101048.09;4416356;32;34786;-63
2022/01/18 02:05:43;;;;;;;5.30;1.30;;;;;;;1.30;59.63;101058.28;4427026;32;34623;-63
2022/01/18 02:08:12;;;;;;;10.77;1.60;;;;;;;1.34;59.74;101056.19;4414951;32;34049;-62
2022/01/18 02:10:41;;;;;;;4.25;1.50;;;;;;;1.41;59.55;101067.94;4393280;32;33723;-62
2022/01/18 02:13:11;;;;;;;5.62;1.00;;;;;;;1.42;59.45;101079.94;4407599;32;33601;-63
2022/01/18 02:21:48;;;;;;;5.22;1.15;;;;;;;1.29;59.68;101082.91;4406922;32;33562;-64
2022/01/18 02:24:09;;;;;;;6.35;1.48;;;;;;;1.17;60.28;101076.56;4407085;32;33875;-61
2022/01/18 02:26:36;;;;;;;4.55;1.30;;;;;;;1.37;59.61;101082.06;4405635;32;33977;-63
2022/01/18 02:29:06;;;;;;;10.88;1.52;;;;;;;1.33;59.62;101079.00;4404100;32;33697;-62
2022/01/18 02:31:35;;;;;;;1.90;0.73;;;;;;;1.37;59.70;101076.03;4402180;32;33210;-63
2022/01/18 02:34:04;;;;;;;3.58;1.17;;;;;;;1.22;60.10;101071.91;4414438;32;33580;-61
2022/01/18 02:36:31;;;;;;;7.50;1.90;;;;;;;1.30;60.00;101064.28;4396805;32;34768;-63
2022/01/18 02:39:00;;;;;;;9.23;1.65;;;;;;;1.10;60.44;101069.00;4413149;32;34002;-63
2022/01/18 02:41:32;;;;;;;6.20;1.25;;;;;;;1.16;60.33;101069.66;4404784;32;33523;-63
2022/01/18 02:44:13;;;;;;;7.68;1.40;;;;;;;1.04;60.70;101076.03;4415472;32;33762;-62
2022/01/18 02:46:43;;;;;;;6.15;1.52;;;;;;;1.18;60.56;101075.81;4394608;32;34576;-62
2022/01/18 02:49:11;;;;;;;7.05;1.92;;;;;;;1.23;60.38;101074.63;4399422;32;33247;-63
2022/01/18 02:51:38;;;;;;;7.43;1.33;;;;;;;1.23;60.40;101071.19;4395757;32;33136;-62
2022/01/18 02:54:13;;;;;;;5.32;1.30;;;;;;;1.22;60.50;101075.38;4408956;32;33620;-62
2022/01/18 02:56:51;;;;;;;8.73;1.33;;;;;;;1.25;60.43;101080.78;4399576;32;33831;-62
2022/01/18 02:59:34;;;;;;;10.85;2.40;;;;;;;1.16;60.60;101085.88;4413645;32;34704;-63
2022/01/18 03:05:02;;;;;;;6.28;1.20;;;;;;;1.08;60.83;101096.03;4404908;32;34523;-61
2022/01/18 03:07:30;;;;;;;7.55;1.00;;;;;;;1.25;60.28;101106.31;4409467;32;81585;-63
2022/01/18 03:09:58;;;;;;;6.62;1.17;;;;;;;1.26;60.07;101108.13;4429133;32;34582;-62
2022/01/18 03:12:26;;;;;;;8.45;2.30;;;;;;;1.30;60.35;101120.47;4429766;32;33597;-63
2022/01/18 03:14:54;;;;;;;5.20;1.35;;;;;;;1.38;59.98;101118.69;4429886;32;33723;-62
2022/01/18 03:17:22;;;;;;;6.25;1.35;;;;;;;1.31;60.01;101127.38;4428015;32;34757;-62
2022/01/18 03:19:49;;;;;;;4.10;1.52;;;;;;;1.35;60.15;101138.78;4432689;32;32636;-63
2022/01/18 03:22:17;;;;;;;2.75;0.75;;;;;;;1.34;59.94;101140.44;4422361;32;33759;-62
2022/01/18 03:30:00;;;;;;;4.32;1.17;;;;;;;1.26;60.25;101148.06;4413200;32;34311;-63
2022/01/18 03:32:29;;;;;;;6.18;1.65;;;;;;;1.16;60.43;101144.56;4419752;32;33624;-62
2022/01/18 03:34:56;;;;;;;3.17;1.10;;;;;;;1.23;60.47;101155.41;4423008;32;33904;-63
2022/01/18 03:37:24;;;;;;;6.72;1.00;;;;;;;1.31;60.30;101163.13;4411927;32;34698;-64
2022/01/18 03:39:52;;;;;;;4.78;1.40;;;;;;;1.27;60.19;101171.19;4423448;32;34862;-63
2022/01/18 03:44:49;;;;;;;5.80;1.10;;;;;;;1.25;60.38;101193.09;4424404;32;34649;-62
2022/01/18 03:47:19;;;;;;;7.18;1.42;;;;;;;1.25;60.18;101187.09;4421027;32;33751;-62
2022/01/18 03:49:47;;;;;;;7.55;1.58;;;;;;;1.20;60.59;101183.16;4413727;32;34005;-62
2022/01/18 03:52:14;;;;;;;5.47;1.08;;;;;;;1.28;60.35;101183.22;4415851;32;33647;-63
2022/01/18 03:54:47;;;;;;;7.30;1.33;;;;;;;1.13;60.76;101187.62;4422599;32;33935;-62
2022/01/18 03:57:15;;;;;;;5.60;1.27;;;;;;;1.28;60.27;101198.53;4424550;32;34583;-63
2022/01/18 03:59:44;;;;;;;9.48;1.60;;;;;;;1.45;59.81;101186.59;4420967;32;34885;-62
2022/01/18 04:02:11;;;;;;;11.23;1.42;;;;;;;1.10;61.07;101196.59;4420285;32;33656;-62
2022/01/18 04:04:40;;;;;;;6.43;1.62;;;;;;;1.16;60.69;101192.16;4417498;32;33866;-62
2022/01/18 04:07:08;;;;;;;6.95;2.03;;;;;;;1.17;60.97;101199.06;4408824;32;33971;-63
2022/01/18 04:09:36;;;;;;;6.62;1.27;;;;;;;1.27;60.35;101206.03;4408273;32;33839;-63
2022/01/18 04:12:04;;;;;;;10.70;1.60;;;;;;;1.16;60.63;101212.59;4408618;32;34393;-62
2022/01/18 04:14:32;;;;;;;8.45;1.55;;;;;;;1.24;60.41;101209.16;4408696;32;34648;-62
2022/01/18 04:27:41;;;;;;;5.90;1.62;;;;;;;1.15;60.19;101226.06;4408035;32;33814;-62
2022/01/18 04:30:10;;;;;;;4.82;0.82;;;;;;;1.17;60.45;101220.37;4408104;32;34126;-61
2022/01/18 04:32:38;;;;;;;5.85;1.58;;;;;;;1.30;59.93;101222.56;4408906;32;34533;-61
2022/01/18 04:35:06;;;;;;;9.27;1.55;;;;;;;1.15;60.03;101220.97;4408460;32;34607;-62
2022/01/18 04:37:33;;;;;;;6.45;1.83;;;;;;;1.07;60.79;101230.37;4404806;32;33789;-62
2022/01/18 04:40:10;;;;;;;4.65;1.00;;;;;;;1.07;60.50;101217.63;4406638;32;34838;-62
2022/01/18 04:43:00;;;;;;;6.62;0.95;;;;;;;1.01;60.42;101227.19;4406223;32;34254;-62
2022/01/18 04:48:36;;;;;;;5.07;1.50;;;;;;;1.13;60.46;101242.88;4407461;32;34329;-63
2022/01/18 04:51:07;;;;;;;6.90;1.25;;;;;;;1.18;60.24;101252.81;4405699;32;34254;-63
2022/01/18 04:53:37;;;;;;;9.02;2.33;;;;;;;1.32;59.92;101261.94;4407717;32;32692;-63
2022/01/18 04:56:08;;;;;;;13.13;2.28;;;;;;;1.35;59.80;101261.31;4389959;32;34006;-62
2022/01/18 04:58:36;;;;;;;5.87;1.45;;;;;;;1.33;59.84;101261.19;4406823;32;33940;-61
2022/01/18 05:01:07;;;;;;;7.03;2.00;;;;;;;1.27;59.97;101255.41;4407053;32;34063;-63
2022/01/18 05:03:35;;;;;;;9.75;1.45;;;;;;;1.15;60.57;101259.25;4396974;32;33754;-62
2022/01/18 05:06:08;;;;;;;6.75;1.90;;;;;;;1.17;60.50;101266.31;4391444;32;33935;-63
2022/01/18 05:08:36;;;;;;;8.05;1.17;;;;;;;1.35;59.89;101262.25;4397846;32;34665;-63
2022/01/18 05:11:05;;;;;;;5.22;1.42;;;;;;;1.36;59.96;101264.06;4421843;32;34917;-62
2022/01/18 05:16:39;;;;;;;9.45;1.83;;;;;;;0.97;61.28;101281.19;4417649;32;34482;-62
2022/01/18 05:19:07;;;;;;;7.05;2.35;;;;;;;0.90;61.52;101274.50;4423055;32;33848;-63
2022/01/18 05:22:56;;;;;;;3.83;1.40;;;;;;;0.72;62.03;101272.56;4412251;32;34004;-62
2022/01/18 05:24:24;;;;;;;7.20;1.77;;;;;;;0.74;62.39;101271.97;4413615;32;33532;-62
2022/01/18 05:26:53;;;;;;;16.87;3.67;;;;;;;0.93;61.82;101268.84;4419234;32;33718;-62
2022/01/18 05:29:21;;;;;;;4.28;1.55;;;;;;;0.91;61.88;101270.34;4422577;32;33843;-62
2022/01/18 05:31:49;;;;;;;8.13;2.72;;;;;;;0.81;62.27;101268.41;4420131;32;34805;-63
2022/01/18 05:34:17;;;;;;;20.00;4.90;;;;;;;0.91;62.19;101285.66;4423482;32;33458;-63
2022/01/18 05:36:44;;;;;;;7.25;1.83;;;;;;;0.88;62.27;101286.19;4423795;32;34018;-63
2022/01/18 05:39:12;;;;;;;7.07;2.45;;;;;;;0.88;62.25;101291.31;4423525;32;33941;-62
2022/01/18 05:41:42;;;;;;;7.03;2.08;;;;;;;0.59;63.54;101296.72;4417664;32;34190;-62
2022/01/18 05:44:09;;;;;;;5.05;2.17;;;;;;;0.80;62.94;101311.63;4415193;32;33487;-62
2022/01/18 05:46:37;;;;;;;6.87;1.73;;;;;;;0.88;62.60;101321.91;4420090;32;34638;-61
2022/01/18 05:49:05;;;;;;;6.15;1.65;;;;;;;0.93;62.54;101313.12;4414820;32;33740;-62
2022/01/18 05:51:34;;;;;;;6.43;1.70;;;;;;;0.83;62.73;101311.94;4411778;32;34679;-62
2022/01/18 05:54:02;;;;;;;5.82;1.85;;;;;;;0.72;63.41;101321.03;4422199;32;34263;-63
2022/01/18 05:56:30;;;;;;;5.82;1.77;;;;;;;0.73;63.39;101312.59;4422003;32;34581;-63
2022/01/18 05:59:02;;;;;;;6.05;1.70;;;;;;;0.74;63.52;101317.00;4416948;32;33519;-63
2022/01/18 06:01:34;;;;;;;9.63;1.75;;;;;;;0.81;63.30;101329.63;4416332;32;35474;-62
2022/01/18 06:09:18;;;;;;;7.70;1.98;;;;;;;0.48;64.56;101322.69;4414393;32;33742;-62
2022/01/18 06:11:46;;;;;;;5.70;1.60;;;;;;;0.69;64.26;101338.53;4422199;32;34025;-63
2022/01/18 06:14:13;;;;;;;9.15;1.83;;;;;;;0.71;64.22;101337.94;4422536;32;33552;-63
2022/01/18 06:16:41;;;;;;;7.40;1.55;;;;;;;1.36;61.86;101337.19;4430057;32;33597;-63
2022/01/18 06:19:09;;;;;;;7.97;2.17;;;;;;;1.14;62.04;101332.37;4419851;32;33974;-62
2022/01/18 06:21:37;;;;;;;7.03;1.85;;;;;;;1.34;61.62;101346.34;4421079;32;33904;-63
2022/01/18 06:24:05;;;;;;;7.15;1.85;;;;;;;1.48;61.41;101350.34;4431906;32;33639;-63
2022/01/18 06:26:52;;;;;;;9.23;1.85;;;;;;;1.66;60.61;101331.84;4439032;32;34695;-63
2022/01/18 06:29:21;;;;;;;5.35;1.50;;;;;;;1.44;61.01;101332.91;4419728;32;34803;-64
2022/01/18 06:31:49;;;;;;;6.00;1.52;;;;;;;1.52;61.17;101342.25;4422797;32;34588;-62
2022/01/18 06:34:17;;;;;;;6.80;1.83;;;;;;;1.38;61.94;101336.59;4423629;32;33767;-63
2022/01/18 06:36:45;;;;;;;8.32;2.15;;;;;;;1.21;62.50;101339.00;4427443;32;33788;-62
2022/01/18 06:39:16;;;;;;;4.18;1.50;;;;;;;1.27;62.63;101334.56;4426196;32;33940;-63
2022/01/18 06:41:45;;;;;;;6.75;1.73;;;;;;;0.70;64.48;101337.81;4428144;32;34175;-62
2022/01/18 06:44:13;;;;;;;12.50;2.00;;;;;;;1.33;62.87;101345.44;4418924;32;32958;-62
2022/01/18 06:46:42;;;;;;;7.47;2.10;;;;;;;1.53;62.07;101354.31;4419609;32;33768;-63
2022/01/18 06:49:09;;;;;;;9.30;2.45;;;;;;;1.44;62.41;101359.31;4437089;32;34262;-63
2022/01/18 06:51:37;;;;;;;8.52;2.30;;;;;;;2.07;60.59;101363.34;4423042;32;34170;-64
2022/01/18 06:54:05;;;;;;;5.85;2.20;;;;;;;2.00;60.65;101358.34;4423934;32;33784;-64
2022/01/18 06:56:32;;;;;;;9.05;1.85;;;;;;;2.01;61.22;101359.25;4417732;32;33234;-63
2022/01/18 06:59:00;;;;;;;7.10;1.98;;;;;;;1.98;60.54;101367.50;4423978;32;34595;-63
2022/01/18 07:01:27;;;;;;;8.27;3.33;;;;;;;1.72;61.15;101373.38;4433453;32;33939;-61
2022/01/18 07:03:55;;;;;;;8.90;2.08;;;;;;;1.75;61.52;101378.78;4418959;32;33426;-62
2022/01/18 07:06:23;;;;;;;11.32;2.08;;;;;;;1.31;62.81;101369.91;4429186;32;33768;-64
2022/01/18 07:08:51;;;;;;;9.18;2.60;;;;;;;0.85;65.01;101371.69;4427315;32;34515;-63
2022/01/18 07:11:20;;;;;;;7.85;2.25;;;;;;;0.92;65.06;101372.53;4421487;32;34691;-61
2022/01/18 07:13:47;;;;;;;4.93;1.30;;;;;;;1.30;64.32;101364.63;4423645;32;33618;-63
2022/01/18 07:16:16;;;;;;;10.05;2.20;;;;;;;1.50;63.58;101366.72;4421607;32;33560;-63
2022/01/18 07:18:43;;;;;;;9.27;2.25;;;;;;;1.34;63.81;101377.88;4422370;32;34644;-63
2022/01/18 07:21:12;;;;;;;11.02;2.97;;;;;;;1.12;64.88;101368.66;4426069;32;32876;-62
2022/01/18 07:23:39;;;;;;;10.10;2.17;;;;;;;1.31;64.22;101375.00;4415737;32;33641;-63
2022/01/18 07:26:10;;;;;;;9.15;2.00;;;;;;;2.01;62.28;101372.94;4424086;32;33060;-63
2022/01/18 07:28:37;;;;;;;7.85;2.12;;;;;;;2.30;60.92;101363.16;4419094;32;33936;-63
2022/01/18 07:31:05;;;;;;;11.88;3.12;;;;;;;1.73;62.78;101364.94;4415716;32;34340;-63
2022/01/18 07:33:36;;;;;;;10.70;2.67;;;;;;;1.26;64.36;101363.41;4414370;32;34233;-62
2022/01/18 07:36:03;;;;;;;9.02;2.70;;;;;;;1.34;64.45;101360.00;4419003;32;34418;-63
2022/01/18 07:38:31;;;;;;;8.60;1.80;;;;;;;1.10;65.36;101370.13;4417675;32;33981;-62
2022/01/18 07:40:58;;;;;;;10.98;2.42;;;;;;;1.10;65.75;101365.03;4416130;32;33915;-64
2022/01/18 07:43:26;;;;;;;13.50;3.33;;;;;;;1.56;64.20;101369.94;4414847;32;33704;-64
2022/01/18 07:45:55;;;;;;;10.93;2.30;;;;;;;1.57;64.00;101367.53;4421673;32;33904;-62
2022/01/18 07:48:23;;;;;;;9.00;2.12;;;;;;;1.89;62.94;101370.03;4413011;32;34655;-64
2022/01/18 07:50:53;;;;;;;15.90;2.85;;;;;;;2.10;62.52;101373.88;4419853;32;33805;-62
2022/01/18 07:53:21;;;;;;;16.75;7.82;;;;;;;1.90;63.03;101369.25;4414802;32;33496;-63
2022/01/18 07:55:48;;;;;;;15.57;4.80;;;;;;;1.59;64.50;101390.69;4424147;32;33408;-63
2022/01/18 07:58:17;;;;;;;13.77;4.37;;;;;;;1.78;63.91;101396.09;4424155;32;33996;-63
2022/01/18 08:00:45;;;;;;;17.37;5.85;;;;;;;1.85;63.58;101402.75;4412989;32;33903;-63
2022/01/18 08:03:13;;;;;;;9.25;3.40;;;;;;;2.28;62.02;101404.66;4422572;32;33407;-62
2022/01/18 08:05:41;;;;;;;12.82;2.67;;;;;;;2.40;61.91;101416.16;4422427;32;33887;-64
2022/01/18 08:08:09;;;;;;;13.62;2.80;;;;;;;2.25;61.88;101406.91;4414581;32;34079;-64
2022/01/18 08:10:36;;;;;;;10.00;2.70;;;;;;;1.88;62.98;101411.66;4418681;32;34845;-63
2022/01/18 08:13:04;;;;;;;10.68;2.92;;;;;;;1.95;63.03;101408.06;4410879;32;34278;-63
2022/01/18 08:15:41;;;;;;;9.18;2.58;;;;;;;2.10;62.81;101417.34;4418985;32;34056;-63
2022/01/18 08:18:12;;;;;;;13.45;3.40;;;;;;;2.17;62.42;101409.56;4415080;32;33910;-64
2022/01/18 08:20:40;;;;;;;17.85;4.18;;;;;;;2.13;62.91;101435.56;4416133;32;34229;-63
2022/01/18 08:23:07;;;;;;;8.38;2.58;;;;;;;2.13;62.95;101435.56;4410238;32;33162;-62
2022/01/18 08:25:35;;;;;;;10.88;3.65;;;;;;;2.15;62.66;101451.97;4418397;32;33649;-63
2022/01/18 08:28:03;;;;;;;8.90;2.60;;;;;;;2.56;61.72;101454.44;4415373;32;33700;-64
2022/01/18 08:30:30;;;;;;;10.43;4.22;;;;;;;2.21;62.60;101463.59;4414045;32;34672;-64
2022/01/18 08:32:58;;;;;;;9.82;2.12;;;;;;;2.04;63.28;101460.16;4420940;32;33651;-63
2022/01/18 08:35:26;;;;;;;11.90;2.78;;;;;;;2.32;62.29;101466.50;4418146;32;33767;-64
2022/01/18 08:37:54;;;;;;;7.68;2.30;;;;;;;1.98;63.12;101468.84;4417632;32;34725;-62
2022/01/18 08:40:22;;;;;;;7.03;2.42;;;;;;;2.08;62.47;101461.38;4414901;32;33745;-62
2022/01/18 08:42:49;;;;;;;10.38;2.85;;;;;;;2.23;62.60;101468.09;4411095;32;32006;-64
2022/01/18 08:45:17;;;;;;;10.07;2.53;;;;;;;2.00;63.15;101467.34;4421985;32;34850;-63
2022/01/18 08:47:48;;;;;;;7.50;2.60;;;;;;;1.90;63.60;101475.69;4417855;32;34682;-62
2022/01/18 08:50:19;;;;;;;9.23;3.12;;;;;;;1.94;63.76;101480.38;4418771;32;32897;-64
2022/01/18 08:52:50;;;;;;;13.52;2.72;;;;;;;1.97;63.61;101488.38;4418443;32;33700;-64
2022/01/18 08:55:20;;;;;;;7.65;2.33;;;;;;;2.13;63.06;101486.69;4423687;32;33830;-62
2022/01/18 08:57:48;;;;;;;7.12;2.72;;;;;;;2.37;62.17;101492.56;4423915;32;33787;-63
2022/01/18 09:00:17;;;;;;;10.68;2.65;;;;;;;2.41;62.44;101484.44;4418075;32;34583;-64
2022/01/18 09:02:44;;;;;;;7.60;2.20;;;;;;;2.60;61.22;101481.25;4412687;32;33551;-64
2022/01/18 09:05:12;;;;;;;10.10;2.62;;;;;;;2.62;60.78;101492.53;4422834;32;34521;-62
2022/01/18 09:07:40;;;;;;;7.25;2.58;;;;;;;2.47;61.62;101504.66;4423821;32;34061;-64
2022/01/18 09:10:11;;;;;;;8.90;2.65;;;;;;;2.58;61.30;101498.09;4423561;32;33885;-64
2022/01/18 09:12:39;;;;;;;9.00;2.58;;;;;;;2.52;62.07;101490.69;4415935;32;32706;-63
2022/01/18 09:15:08;;;;;;;8.10;2.80;;;;;;;2.73;60.75;101500.56;4411020;32;33569;-63
2022/01/18 09:17:37;;;;;;;8.43;2.45;;;;;;;2.42;61.42;101506.72;4423876;32;33754;-63
2022/01/18 09:20:06;;;;;;;12.82;3.17;;;;;;;2.94;60.63;101507.00;4423634;32;34732;-64
2022/01/18 09:22:38;;;;;;;10.18;2.40;;;;;;;2.82;60.16;101504.81;4423487;32;34372;-63
2022/01/18 09:25:09;;;;;;;8.80;2.50;;;;;;;2.93;60.27;101502.59;4421484;32;33793;-63
2022/01/18 09:27:36;;;;;;;9.25;2.00;;;;;;;2.97;59.30;101511.50;4412429;32;33916;-65
2022/01/18 09:30:04;;;;;;;13.77;2.70;;;;;;;3.05;59.08;101522.53;4420141;32;33949;-63
2022/01/18 09:32:32;;;;;;;8.75;2.22;;;;;;;2.77;60.51;101529.94;4418163;32;34294;-62
2022/01/18 09:35:00;;;;;;;7.22;2.05;;;;;;;3.26;58.90;101521.25;4422395;32;34111;-62
2022/01/18 09:37:27;;;;;;;8.68;2.87;;;;;;;2.94;59.31;101519.78;4415460;32;33598;-62
2022/01/18 09:39:55;;;;;;;7.93;2.10;;;;;;;2.93;59.65;101529.88;4415090;32;33806;-64
2022/01/18 09:42:27;;;;;;;7.90;2.12;;;;;;;3.28;58.10;101520.69;4413999;32;32774;-63
2022/01/18 09:44:55;;;;;;;11.02;2.58;;;;;;;3.21;58.78;101523.38;4405880;32;34577;-63
2022/01/18 09:47:23;;;;;;;8.73;2.22;;;;;;;2.91;59.80;101516.00;4418198;32;33636;-61
2022/01/18 09:49:51;;;;;;;7.78;2.00;;;;;;;3.17;58.65;101523.81;4419773;32;34868;-63
2022/01/18 09:52:19;;;;;;;6.65;1.55;;;;;;;3.15;58.38;101520.19;4415116;32;34539;-63
2022/01/18 09:54:46;;;;;;;12.40;3.08;;;;;;;3.29;57.97;101517.34;4417831;32;34361;-62
2022/01/18 09:57:13;;;;;;;12.07;2.50;;;;;;;3.16;58.87;101514.31;4414680;32;34654;-63
2022/01/18 09:59:41;;;;;;;19.85;2.58;;;;;;;3.34;57.46;101511.06;4418348;32;34718;-63
2022/01/18 10:02:10;;;;;;;9.60;2.83;;;;;;;3.54;57.33;101512.16;4410211;32;33979;-63
2022/01/18 10:04:43;;;;;;;12.90;2.72;;;;;;;3.32;58.22;101522.81;4409497;32;32671;-63
2022/01/18 10:07:11;;;;;;;11.45;3.03;;;;;;;3.24;57.30;101505.72;4416840;32;33904;-63
2022/01/18 10:09:39;;;;;;;7.10;2.20;;;;;;;3.39;57.63;101501.25;4415275;32;34196;-63
2022/01/18 10:12:13;;;;;;;11.27;2.22;;;;;;;3.47;56.80;101508.03;4414884;32;33345;-63
2022/01/18 10:14:43;;;;;;;12.30;2.62;;;;;;;3.25;57.29;101507.56;4409095;32;34489;-63
2022/01/18 10:17:11;;;;;;;11.27;2.47;;;;;;;3.05;58.31;101514.84;4409858;32;35649;-64
2022/01/18 10:19:50;;;;;;;6.15;2.00;;;;;;;2.92;58.52;101513.62;4400365;32;31380;-63
2022/01/18 10:22:24;;;;;;;5.87;1.73;;;;;;;2.98;58.62;101517.56;4413774;32;33234;-64
2022/01/18 10:24:54;;;;;;;31.17;11.25;;;;;;;3.34;57.32;101523.84;4417568;32;33765;-64
2022/01/18 10:27:23;;;;;;;14.38;5.28;;;;;;;3.27;57.22;101515.41;4417624;32;33696;-62
2022/01/18 10:29:51;;;;;;;16.92;8.30;;;;;;;3.39;56.95;101519.19;4411088;32;34082;-63
2022/01/18 10:32:25;;;;;;;11.60;5.20;;;;;;;3.37;56.69;101517.22;4417637;32;33473;-63
2022/01/18 10:37:21;;;;;;;14.15;3.37;;;;;;;3.53;56.56;101518.94;4419438;32;33549;-64
2022/01/18 10:39:55;;;;;;;7.32;2.87;;;;;;;3.61;56.82;101522.28;4414257;32;34716;-62
2022/01/18 10:42:29;;;;;;;8.43;2.65;;;;;;;3.70;55.81;101510.34;4421470;32;33404;-64
2022/01/18 10:45:03;;;;;;;8.30;2.90;;;;;;;4.04;55.28;101515.34;4414867;32;34092;-62
2022/01/18 10:47:32;;;;;;;;;;;;;;;3.71;54.97;101512.16;4416741;32;33707;-63
2022/01/18 10:50:14;;;;;;;7.78;1.87;;;;;;;3.76;55.60;101521.97;4422043;32;34209;-63
2022/01/18 10:52:41;;;;;;;5.25;2.22;;;;;;;3.65;55.73;101513.19;4419360;32;33318;-63
2022/01/18 10:55:23;;;;;;;8.55;2.78;;;;;;;3.74;54.82;101519.25;4411956;32;34758;-62
2022/01/18 10:57:52;;;;;;;6.78;1.58;;;;;;;3.55;55.26;101511.37;4415646;32;34704;-63
2022/01/18 11:00:22;;;;;;;8.27;2.10;;;;;;;3.40;56.01;101520.09;4414318;32;34077;-62
2022/01/18 11:02:51;;;;;;;6.80;2.40;;;;;;;3.82;55.09;101514.87;4421016;32;34303;-63
2022/01/18 11:05:25;;;;;;;7.90;2.17;;;;;;;3.78;53.89;101508.53;4415366;32;34612;-62
2022/01/18 11:07:54;;;;;;;11.38;1.90;;;;;;;3.55;54.49;101511.37;4414751;32;34799;-63
2022/01/18 11:10:25;;;;;;;9.25;2.05;;;;;;;3.81;54.16;101515.66;4416689;32;32569;-62
2022/01/18 11:13:04;;;;;;;6.57;2.00;;;;;;;4.20;53.56;101517.75;4412127;32;34296;-63
2022/01/18 11:15:36;;;;;;;4.37;1.45;;;;;;;4.62;52.63;101526.13;4419929;32;34768;-63
2022/01/18 11:18:13;;;;;;;10.32;2.92;;;;;;;4.04;53.33;101529.06;4419520;32;33813;-63
2022/01/18 11:20:45;;;;;;;6.00;1.55;;;;;;;4.38;53.24;101541.72;4411132;32;34237;-62
2022/01/18 11:23:14;;;;;;;12.23;2.25;;;;;;;4.24;52.62;101522.41;4414975;32;33743;-62
2022/01/18 11:25:42;;;;;;;7.12;1.95;;;;;;;4.08;52.85;101526.06;4421355;32;34090;-63
2022/01/18 11:28:10;;;;;;;6.32;2.08;;;;;;;4.41;53.05;101527.53;4424349;32;33627;-62
2022/01/18 11:30:40;;;;;;;6.10;1.73;;;;;;;4.59;52.11;101530.97;4418742;32;33876;-62
2022/01/18 11:33:12;;;;;;;8.10;1.75;;;;;;;4.41;52.92;101535.22;4420025;32;32679;-62
2022/01/18 11:35:50;;;;;;;9.52;2.47;;;;;;;4.09;52.74;101527.84;4420119;32;34378;-61
2022/01/18 11:38:27;;;;;;;7.20;2.12;;;;;;;4.16;52.41;101536.16;4422061;32;33805;-62
2022/01/18 11:40:57;;;;;;;10.73;2.33;;;;;;;4.08;53.42;101517.47;4422144;32;34929;-62
2022/01/18 11:43:33;;;;;;;5.68;1.52;;;;;;;4.27;52.91;101520.16;4414186;32;33640;-63
2022/01/18 11:46:24;;;;;;;11.10;2.25;;;;;;;4.13;53.38;101542.81;4415938;32;33888;-63
2022/01/18 11:49:03;;;;;;;5.70;1.85;;;;;;;4.11;53.02;101538.25;4418407;32;34836;-63
2022/01/18 11:51:47;;;;;;;10.48;2.10;;;;;;;4.14;53.90;101549.72;4419940;32;34317;-63
2022/01/18 11:54:45;;;;;;;7.43;1.98;;;;;;;3.96;53.78;101539.31;4421878;32;34318;-62
2022/01/18 11:57:15;;;;;;;11.68;2.50;;;;;;;4.44;52.68;101552.56;4421590;32;33472;-62
2022/01/18 11:59:43;;;;;;;9.88;2.83;;;;;;;4.34;53.37;101541.41;4420848;32;34588;-62
2022/01/18 12:02:11;;;;;;;9.27;2.45;;;;;;;4.46;52.26;101539.16;4417961;32;34241;-62
2022/01/18 12:04:48;;;;;;;7.85;3.00;;;;;;;4.49;52.14;101529.16;4417166;32;33752;-63
2022/01/18 12:07:33;;;;;;;6.25;2.20;;;;;;;4.41;52.16;101532.66;4420666;32;33759;-62
2022/01/18 12:10:02;;;;;;;40.70;13.80;;;;;;;4.18;52.42;101520.16;4415656;32;34022;-63
2022/01/18 12:12:49;;;;;;;16.87;5.97;;;;;;;4.50;51.69;101531.00;4418467;32;34424;-63
2022/01/18 12:15:26;;;;;;;10.15;2.33;;;;;;;4.23;51.95;101523.16;4418473;32;32125;-62
2022/01/18 12:17:57;;;;;;;12.02;2.67;;;;;;;4.23;53.03;101521.53;4417465;32;33993;-62
2022/01/18 12:20:34;;;;;;;11.98;4.10;;;;;;;4.53;51.96;101531.25;4417361;32;34642;-63
2022/01/18 12:23:22;;;;;;;6.72;2.15;;;;;;;4.80;51.78;101532.13;4416750;32;33871;-63
2022/01/18 12:26:02;;;;;;;8.40;2.53;;;;;;;4.36;52.00;101531.31;4421389;32;33660;-63
2022/01/18 12:34:37;;;;;;;8.18;2.65;;;;;;;4.24;52.32;101525.00;4411057;32;34057;-61
2022/01/18 12:37:08;;;;;;;14.40;3.20;;;;;;;4.16;53.45;101525.91;4420823;32;33687;-62
2022/01/18 12:39:50;;;;;;;9.55;2.87;;;;;;;4.47;52.22;101525.56;4415743;32;33937;-61
2022/01/18 12:45:07;;;;;;;5.70;2.17;;;;;;;4.33;52.66;101537.03;4420935;32;34131;-62
2022/01/18 12:47:36;;;;;;;9.90;3.70;;;;;;;4.36;52.61;101541.56;4422191;32;33743;-61
2022/01/18 12:50:07;;;;;;;7.87;2.10;;;;;;;4.26;53.01;101546.56;4409301;32;32365;-62
2022/01/18 12:52:55;;;;;;;11.43;2.53;;;;;;;4.47;52.99;101553.78;4415688;32;34787;-61
2022/01/18 12:55:45;;;;;;;8.50;2.72;;;;;;;4.43;52.86;101538.84;4419202;32;34873;-62
2022/01/18 12:58:30;;;;;;;7.85;2.70;;;;;;;4.32;52.87;101527.53;4416889;32;32764;-61
2022/01/18 13:01:04;;;;;;;11.30;3.33;;;;;;;4.10;53.21;101550.19;4417935;32;34265;-61
2022/01/18 13:03:44;;;;;;;10.33;2.80;;;;;;;4.38;52.96;101549.41;4418228;32;33772;-61
2022/01/18 13:06:33;;;;;;;14.77;3.45;;;;;;;4.99;51.83;101560.44;4419491;32;34073;-61
2022/01/18 13:09:04;;;;;;;11.82;2.75;;;;;;;4.29;53.08;101545.19;4420510;32;33349;-62
2022/01/18 13:11:34;;;;;;;11.75;2.78;;;;;;;4.45;52.79;101534.75;4420545;32;32994;-62
2022/01/18 13:14:11;;;;;;;9.05;2.25;;;;;;;4.28;53.36;101553.62;4422652;32;34626;-62
2022/01/18 13:27:30;;;;;;;8.60;2.97;;;;;;;4.66;54.85;101553.00;4419517;32;33831;-61
2022/01/18 13:30:22;;;;;;;5.43;1.97;;;;;;;4.92;57.64;101553.84;4421492;32;33513;-61